sensor_id;sensor_type;location;lat;lon;timestamp;P1;durP1;ratioP1;P2;durP2;ratioP2
55308;SDS011;44028;51.358;19.876;2022-12-24T00:01:31;67.72;;;29.80;;
55308;SDS011;44028;51.358;19.876;2022-12-24T00:03:57;68.10;;;27.25;;
55308;SDS011;44028;51.358;19.876;2022-12-24T00:06:24;71.28;;;27.95;;
55308;SDS011;44028;51.358;19.876;2022-12-24T00:08:51;77.25;;;29.88;;
55308;SDS011;44028;51.358;19.876;2022-12-24T00:11:19;65.50;;;27.08;;
55308;SDS011;44028;51.358;19.876;2022-12-24T00:13:46;76.15;;;29.35;;
55308;SDS011;44028;51.358;19.876;2022-12-24T00:16:13;68.05;;;27.65;;
55308;SDS011;44028;51.358;19.876;2022-12-24T00:18:40;71.93;;;28.88;;
55308;SDS011;44028;51.358;19.876;2022-12-24T00:21:13;81.03;;;29.83;;
55308;SDS011;44028;51.358;19.876;2022-12-24T00:23:42;56.05;;;24.60;;
55308;SDS011;44028;51.358;19.876;2022-12-24T00:26:09;65.00;;;33.88;;
55308;SDS011;44028;51.358;19.876;2022-12-24T00:28:39;65.10;;;32.03;;
55308;SDS011;44028;51.358;19.876;2022-12-24T00:31:07;58.92;;;28.98;;
55308;SDS011;44028;51.358;19.876;2022-12-24T00:33:34;57.70;;;27.33;;
55308;SDS011;44028;51.358;19.876;2022-12-24T00:36:01;53.35;;;25.08;;
55308;SDS011;44028;51.358;19.876;2022-12-24T00:38:28;73.72;;;30.42;;
55308;SDS011;44028;51.358;19.876;2022-12-24T00:40:58;66.45;;;29.13;;
55308;SDS011;44028;51.358;19.876;2022-12-24T00:43:29;63.28;;;29.15;;
55308;SDS011;44028;51.358;19.876;2022-12-24T00:45:59;54.33;;;26.45;;
55308;SDS011;44028;51.358;19.876;2022-12-24T00:48:26;58.13;;;26.90;;
55308;SDS011;44028;51.358;19.876;2022-12-24T00:50:56;61.63;;;27.77;;
55308;SDS011;44028;51.358;19.876;2022-12-24T00:53:23;61.88;;;28.45;;
55308;SDS011;44028;51.358;19.876;2022-12-24T00:55:50;64.97;;;29.63;;
55308;SDS011;44028;51.358;19.876;2022-12-24T00:58:19;61.90;;;29.33;;
55308;SDS011;44028;51.358;19.876;2022-12-24T01:00:46;55.53;;;26.23;;
55308;SDS011;44028;51.358;19.876;2022-12-24T01:03:13;51.42;;;25.77;;
55308;SDS011;44028;51.358;19.876;2022-12-24T01:05:40;52.28;;;26.83;;
55308;SDS011;44028;51.358;19.876;2022-12-24T01:08:07;57.78;;;28.80;;
55308;SDS011;44028;51.358;19.876;2022-12-24T01:10:34;59.70;;;29.45;;
55308;SDS011;44028;51.358;19.876;2022-12-24T01:13:01;55.47;;;28.30;;
55308;SDS011;44028;51.358;19.876;2022-12-24T01:15:28;61.70;;;29.33;;
55308;SDS011;44028;51.358;19.876;2022-12-24T01:17:55;57.40;;;27.90;;
55308;SDS011;44028;51.358;19.876;2022-12-24T01:20:22;56.20;;;28.17;;
55308;SDS011;44028;51.358;19.876;2022-12-24T01:22:52;62.25;;;30.23;;
55308;SDS011;44028;51.358;19.876;2022-12-24T01:25:22;62.65;;;29.52;;
55308;SDS011;44028;51.358;19.876;2022-12-24T01:27:55;60.70;;;29.48;;
55308;SDS011;44028;51.358;19.876;2022-12-24T01:30:22;65.10;;;33.08;;
55308;SDS011;44028;51.358;19.876;2022-12-24T01:32:49;61.92;;;29.60;;
55308;SDS011;44028;51.358;19.876;2022-12-24T01:35:16;53.00;;;26.48;;
55308;SDS011;44028;51.358;19.876;2022-12-24T01:37:43;63.38;;;30.17;;
55308;SDS011;44028;51.358;19.876;2022-12-24T01:40:13;54.40;;;26.35;;
55308;SDS011;44028;51.358;19.876;2022-12-24T01:42:54;56.87;;;27.83;;
55308;SDS011;44028;51.358;19.876;2022-12-24T01:48:13;59.75;;;30.00;;
55308;SDS011;44028;51.358;19.876;2022-12-24T01:50:41;65.38;;;29.08;;
55308;SDS011;44028;51.358;19.876;2022-12-24T01:53:08;62.78;;;29.42;;
55308;SDS011;44028;51.358;19.876;2022-12-24T01:55:39;60.85;;;28.33;;
55308;SDS011;44028;51.358;19.876;2022-12-24T01:58:07;65.72;;;31.83;;
55308;SDS011;44028;51.358;19.876;2022-12-24T02:00:35;62.05;;;29.35;;
55308;SDS011;44028;51.358;19.876;2022-12-24T02:03:08;64.22;;;28.92;;
55308;SDS011;44028;51.358;19.876;2022-12-24T02:05:37;63.25;;;30.20;;
55308;SDS011;44028;51.358;19.876;2022-12-24T02:08:07;64.05;;;30.27;;
55308;SDS011;44028;51.358;19.876;2022-12-24T02:10:37;61.53;;;28.13;;
55308;SDS011;44028;51.358;19.876;2022-12-24T02:13:05;63.72;;;28.88;;
55308;SDS011;44028;51.358;19.876;2022-12-24T02:15:41;67.05;;;30.35;;
55308;SDS011;44028;51.358;19.876;2022-12-24T02:18:18;59.05;;;27.30;;
55308;SDS011;44028;51.358;19.876;2022-12-24T02:34:02;59.45;;;27.25;;
55308;SDS011;44028;51.358;19.876;2022-12-24T02:36:38;55.60;;;26.50;;
55308;SDS011;44028;51.358;19.876;2022-12-24T02:39:09;56.70;;;26.65;;
55308;SDS011;44028;51.358;19.876;2022-12-24T02:41:39;57.22;;;26.67;;
55308;SDS011;44028;51.358;19.876;2022-12-24T02:44:24;56.28;;;25.98;;
55308;SDS011;44028;51.358;19.876;2022-12-24T02:46:52;68.90;;;29.63;;
55308;SDS011;44028;51.358;19.876;2022-12-24T02:49:19;63.30;;;28.42;;
55308;SDS011;44028;51.358;19.876;2022-12-24T02:51:49;60.60;;;27.35;;
55308;SDS011;44028;51.358;19.876;2022-12-24T02:54:19;55.97;;;26.92;;
55308;SDS011;44028;51.358;19.876;2022-12-24T02:56:50;58.90;;;25.90;;
55308;SDS011;44028;51.358;19.876;2022-12-24T03:01:59;50.22;;;24.00;;
55308;SDS011;44028;51.358;19.876;2022-12-24T03:07:22;53.97;;;25.92;;
55308;SDS011;44028;51.358;19.876;2022-12-24T03:09:55;63.60;;;29.08;;
55308;SDS011;44028;51.358;19.876;2022-12-24T03:12:48;61.53;;;27.58;;
55308;SDS011;44028;51.358;19.876;2022-12-24T03:15:16;56.42;;;26.52;;
55308;SDS011;44028;51.358;19.876;2022-12-24T03:17:47;56.53;;;27.10;;
55308;SDS011;44028;51.358;19.876;2022-12-24T03:20:20;60.20;;;27.83;;
55308;SDS011;44028;51.358;19.876;2022-12-24T03:22:48;56.88;;;28.00;;
55308;SDS011;44028;51.358;19.876;2022-12-24T03:25:15;53.38;;;24.73;;
55308;SDS011;44028;51.358;19.876;2022-12-24T03:27:42;53.97;;;25.05;;
55308;SDS011;44028;51.358;19.876;2022-12-24T03:30:10;60.78;;;27.10;;
55308;SDS011;44028;51.358;19.876;2022-12-24T03:32:37;57.25;;;25.75;;
55308;SDS011;44028;51.358;19.876;2022-12-24T03:35:08;56.15;;;26.63;;
55308;SDS011;44028;51.358;19.876;2022-12-24T03:37:35;49.50;;;25.27;;
55308;SDS011;44028;51.358;19.876;2022-12-24T03:40:08;60.40;;;27.45;;
55308;SDS011;44028;51.358;19.876;2022-12-24T03:42:35;71.22;;;31.40;;
55308;SDS011;44028;51.358;19.876;2022-12-24T03:45:02;59.28;;;27.15;;
55308;SDS011;44028;51.358;19.876;2022-12-24T03:47:29;58.05;;;26.92;;
55308;SDS011;44028;51.358;19.876;2022-12-24T03:49:56;59.13;;;27.95;;
55308;SDS011;44028;51.358;19.876;2022-12-24T03:52:29;58.05;;;26.63;;
55308;SDS011;44028;51.358;19.876;2022-12-24T03:54:56;53.67;;;25.88;;
55308;SDS011;44028;51.358;19.876;2022-12-24T03:57:23;52.75;;;24.67;;
55308;SDS011;44028;51.358;19.876;2022-12-24T03:59:50;47.38;;;23.27;;
55308;SDS011;44028;51.358;19.876;2022-12-24T04:02:17;49.88;;;21.17;;
55308;SDS011;44028;51.358;19.876;2022-12-24T04:04:44;45.30;;;21.17;;
55308;SDS011;44028;51.358;19.876;2022-12-24T04:07:10;47.28;;;22.98;;
55308;SDS011;44028;51.358;19.876;2022-12-24T04:09:37;54.40;;;24.40;;
55308;SDS011;44028;51.358;19.876;2022-12-24T04:12:06;50.97;;;21.85;;
55308;SDS011;44028;51.358;19.876;2022-12-24T04:14:33;48.33;;;22.77;;
55308;SDS011;44028;51.358;19.876;2022-12-24T04:17:03;50.90;;;23.33;;
55308;SDS011;44028;51.358;19.876;2022-12-24T04:19:31;50.78;;;23.10;;
55308;SDS011;44028;51.358;19.876;2022-12-24T04:21:58;48.20;;;23.33;;
55308;SDS011;44028;51.358;19.876;2022-12-24T04:24:25;51.30;;;23.15;;
55308;SDS011;44028;51.358;19.876;2022-12-24T04:26:51;51.67;;;23.85;;
55308;SDS011;44028;51.358;19.876;2022-12-24T04:29:18;51.28;;;23.85;;
55308;SDS011;44028;51.358;19.876;2022-12-24T04:31:45;51.75;;;23.33;;
55308;SDS011;44028;51.358;19.876;2022-12-24T04:34:12;53.65;;;24.73;;
55308;SDS011;44028;51.358;19.876;2022-12-24T04:36:42;49.05;;;22.20;;
55308;SDS011;44028;51.358;19.876;2022-12-24T04:39:09;47.00;;;22.88;;
55308;SDS011;44028;51.358;19.876;2022-12-24T04:41:45;44.70;;;20.55;;
55308;SDS011;44028;51.358;19.876;2022-12-24T04:44:30;43.47;;;20.45;;
55308;SDS011;44028;51.358;19.876;2022-12-24T04:46:59;45.72;;;20.15;;
55308;SDS011;44028;51.358;19.876;2022-12-24T04:49:26;45.63;;;21.60;;
55308;SDS011;44028;51.358;19.876;2022-12-24T04:51:53;46.03;;;21.60;;
55308;SDS011;44028;51.358;19.876;2022-12-24T04:54:20;48.85;;;22.33;;
55308;SDS011;44028;51.358;19.876;2022-12-24T04:56:47;47.08;;;20.90;;
55308;SDS011;44028;51.358;19.876;2022-12-24T04:59:14;43.13;;;19.80;;
55308;SDS011;44028;51.358;19.876;2022-12-24T05:01:41;41.97;;;19.67;;
55308;SDS011;44028;51.358;19.876;2022-12-24T05:04:10;43.72;;;20.40;;
55308;SDS011;44028;51.358;19.876;2022-12-24T05:06:37;46.92;;;21.95;;
55308;SDS011;44028;51.358;19.876;2022-12-24T05:09:04;45.30;;;20.48;;
55308;SDS011;44028;51.358;19.876;2022-12-24T05:11:31;46.60;;;22.55;;
55308;SDS011;44028;51.358;19.876;2022-12-24T05:13:58;41.35;;;20.25;;
55308;SDS011;44028;51.358;19.876;2022-12-24T05:16:25;42.58;;;19.60;;
55308;SDS011;44028;51.358;19.876;2022-12-24T05:18:52;42.13;;;19.55;;
55308;SDS011;44028;51.358;19.876;2022-12-24T05:21:21;44.72;;;22.17;;
55308;SDS011;44028;51.358;19.876;2022-12-24T05:23:49;42.17;;;21.52;;
55308;SDS011;44028;51.358;19.876;2022-12-24T05:26:32;40.85;;;20.48;;
55308;SDS011;44028;51.358;19.876;2022-12-24T05:29:00;42.03;;;20.30;;
55308;SDS011;44028;51.358;19.876;2022-12-24T05:31:28;39.90;;;19.25;;
55308;SDS011;44028;51.358;19.876;2022-12-24T05:33:59;41.00;;;19.40;;
55308;SDS011;44028;51.358;19.876;2022-12-24T05:36:26;40.92;;;19.33;;
55308;SDS011;44028;51.358;19.876;2022-12-24T05:38:56;37.10;;;18.08;;
55308;SDS011;44028;51.358;19.876;2022-12-24T05:41:23;36.40;;;18.65;;
55308;SDS011;44028;51.358;19.876;2022-12-24T05:43:50;35.13;;;17.52;;
55308;SDS011;44028;51.358;19.876;2022-12-24T05:46:18;34.72;;;16.80;;
55308;SDS011;44028;51.358;19.876;2022-12-24T05:48:45;32.45;;;16.67;;
55308;SDS011;44028;51.358;19.876;2022-12-24T05:51:13;34.80;;;16.80;;
55308;SDS011;44028;51.358;19.876;2022-12-24T05:53:46;35.75;;;17.25;;
55308;SDS011;44028;51.358;19.876;2022-12-24T05:56:19;34.97;;;17.48;;
55308;SDS011;44028;51.358;19.876;2022-12-24T05:58:47;33.78;;;17.15;;
55308;SDS011;44028;51.358;19.876;2022-12-24T06:01:18;35.00;;;16.73;;
55308;SDS011;44028;51.358;19.876;2022-12-24T06:03:45;35.28;;;17.20;;
55308;SDS011;44028;51.358;19.876;2022-12-24T06:06:13;30.58;;;15.73;;
55308;SDS011;44028;51.358;19.876;2022-12-24T06:08:40;35.38;;;17.50;;
55308;SDS011;44028;51.358;19.876;2022-12-24T06:11:25;34.83;;;17.48;;
55308;SDS011;44028;51.358;19.876;2022-12-24T06:14:22;34.33;;;16.45;;
55308;SDS011;44028;51.358;19.876;2022-12-24T06:16:51;30.77;;;14.88;;
55308;SDS011;44028;51.358;19.876;2022-12-24T06:19:19;31.73;;;15.48;;
55308;SDS011;44028;51.358;19.876;2022-12-24T06:21:46;33.40;;;15.65;;
55308;SDS011;44028;51.358;19.876;2022-12-24T06:24:13;30.73;;;15.20;;
55308;SDS011;44028;51.358;19.876;2022-12-24T06:26:40;30.35;;;15.55;;
55308;SDS011;44028;51.358;19.876;2022-12-24T06:29:07;34.25;;;16.65;;
55308;SDS011;44028;51.358;19.876;2022-12-24T06:31:34;33.25;;;15.82;;
55308;SDS011;44028;51.358;19.876;2022-12-24T06:34:00;34.13;;;16.23;;
55308;SDS011;44028;51.358;19.876;2022-12-24T06:36:27;30.73;;;14.80;;
55308;SDS011;44028;51.358;19.876;2022-12-24T06:38:54;31.80;;;14.95;;
55308;SDS011;44028;51.358;19.876;2022-12-24T06:41:22;34.50;;;16.58;;
55308;SDS011;44028;51.358;19.876;2022-12-24T06:43:50;34.78;;;16.65;;
55308;SDS011;44028;51.358;19.876;2022-12-24T06:46:17;34.13;;;16.63;;
55308;SDS011;44028;51.358;19.876;2022-12-24T06:48:45;33.33;;;15.52;;
55308;SDS011;44028;51.358;19.876;2022-12-24T06:51:13;42.92;;;21.20;;
55308;SDS011;44028;51.358;19.876;2022-12-24T06:53:40;71.25;;;34.80;;
55308;SDS011;44028;51.358;19.876;2022-12-24T06:56:09;62.35;;;31.15;;
55308;SDS011;44028;51.358;19.876;2022-12-24T06:58:38;89.03;;;42.22;;
55308;SDS011;44028;51.358;19.876;2022-12-24T07:01:06;242.00;;;106.43;;
55308;SDS011;44028;51.358;19.876;2022-12-24T07:03:34;71.40;;;35.97;;
55308;SDS011;44028;51.358;19.876;2022-12-24T07:06:04;59.50;;;30.50;;
55308;SDS011;44028;51.358;19.876;2022-12-24T07:08:31;62.42;;;33.03;;
55308;SDS011;44028;51.358;19.876;2022-12-24T07:11:02;51.80;;;27.02;;
55308;SDS011;44028;51.358;19.876;2022-12-24T07:13:29;52.60;;;27.92;;
55308;SDS011;44028;51.358;19.876;2022-12-24T07:16:03;46.30;;;22.67;;
55308;SDS011;44028;51.358;19.876;2022-12-24T07:18:31;43.38;;;22.65;;
55308;SDS011;44028;51.358;19.876;2022-12-24T07:20:58;38.80;;;19.05;;
55308;SDS011;44028;51.358;19.876;2022-12-24T07:23:25;33.80;;;17.40;;
55308;SDS011;44028;51.358;19.876;2022-12-24T07:25:52;43.33;;;21.50;;
55308;SDS011;44028;51.358;19.876;2022-12-24T07:28:19;86.68;;;39.55;;
55308;SDS011;44028;51.358;19.876;2022-12-24T07:30:53;84.90;;;38.73;;
55308;SDS011;44028;51.358;19.876;2022-12-24T07:33:20;47.75;;;25.05;;
55308;SDS011;44028;51.358;19.876;2022-12-24T07:35:46;54.70;;;26.08;;
55308;SDS011;44028;51.358;19.876;2022-12-24T07:38:21;38.55;;;19.42;;
55308;SDS011;44028;51.358;19.876;2022-12-24T07:40:48;34.78;;;18.05;;
55308;SDS011;44028;51.358;19.876;2022-12-24T07:43:15;40.78;;;20.45;;
55308;SDS011;44028;51.358;19.876;2022-12-24T07:45:45;45.28;;;22.10;;
55308;SDS011;44028;51.358;19.876;2022-12-24T07:48:12;40.58;;;19.38;;
55308;SDS011;44028;51.358;19.876;2022-12-24T07:50:39;49.72;;;22.33;;
55308;SDS011;44028;51.358;19.876;2022-12-24T07:53:05;46.15;;;21.13;;
55308;SDS011;44028;51.358;19.876;2022-12-24T07:55:35;44.75;;;21.73;;
55308;SDS011;44028;51.358;19.876;2022-12-24T07:58:02;41.28;;;20.73;;
55308;SDS011;44028;51.358;19.876;2022-12-24T08:00:32;38.38;;;19.80;;
55308;SDS011;44028;51.358;19.876;2022-12-24T08:02:59;39.47;;;19.33;;
55308;SDS011;44028;51.358;19.876;2022-12-24T08:05:26;39.15;;;18.70;;
55308;SDS011;44028;51.358;19.876;2022-12-24T08:07:53;38.65;;;18.45;;
55308;SDS011;44028;51.358;19.876;2022-12-24T08:10:20;38.38;;;18.00;;
55308;SDS011;44028;51.358;19.876;2022-12-24T08:12:48;38.30;;;19.23;;
55308;SDS011;44028;51.358;19.876;2022-12-24T08:15:15;34.45;;;17.00;;
55308;SDS011;44028;51.358;19.876;2022-12-24T08:17:43;32.78;;;16.80;;
55308;SDS011;44028;51.358;19.876;2022-12-24T08:20:10;33.25;;;16.60;;
55308;SDS011;44028;51.358;19.876;2022-12-24T08:23:46;36.22;;;17.08;;
55308;SDS011;44028;51.358;19.876;2022-12-24T08:25:57;56.20;;;26.60;;
55308;SDS011;44028;51.358;19.876;2022-12-24T08:28:24;44.42;;;21.55;;
55308;SDS011;44028;51.358;19.876;2022-12-24T08:30:51;44.90;;;21.83;;
55308;SDS011;44028;51.358;19.876;2022-12-24T08:33:18;39.35;;;21.35;;
55308;SDS011;44028;51.358;19.876;2022-12-24T08:35:46;33.13;;;17.55;;
55308;SDS011;44028;51.358;19.876;2022-12-24T08:38:13;40.42;;;22.90;;
55308;SDS011;44028;51.358;19.876;2022-12-24T08:41:24;57.15;;;28.23;;
55308;SDS011;44028;51.358;19.876;2022-12-24T08:43:57;49.70;;;26.20;;
55308;SDS011;44028;51.358;19.876;2022-12-24T08:46:24;51.45;;;25.92;;
55308;SDS011;44028;51.358;19.876;2022-12-24T08:48:51;49.22;;;25.23;;
55308;SDS011;44028;51.358;19.876;2022-12-24T08:51:18;58.30;;;29.88;;
55308;SDS011;44028;51.358;19.876;2022-12-24T08:53:46;68.63;;;36.58;;
55308;SDS011;44028;51.358;19.876;2022-12-24T08:56:13;64.55;;;33.00;;
55308;SDS011;44028;51.358;19.876;2022-12-24T08:58:40;61.78;;;30.23;;
55308;SDS011;44028;51.358;19.876;2022-12-24T09:01:11;86.20;;;35.78;;
55308;SDS011;44028;51.358;19.876;2022-12-24T09:03:38;101.90;;;41.83;;
55308;SDS011;44028;51.358;19.876;2022-12-24T09:06:05;71.13;;;32.63;;
55308;SDS011;44028;51.358;19.876;2022-12-24T09:08:33;68.22;;;29.95;;
55308;SDS011;44028;51.358;19.876;2022-12-24T09:11:07;65.25;;;28.52;;
55308;SDS011;44028;51.358;19.876;2022-12-24T09:13:34;53.78;;;24.30;;
55308;SDS011;44028;51.358;19.876;2022-12-24T09:16:01;54.95;;;27.20;;
55308;SDS011;44028;51.358;19.876;2022-12-24T09:18:29;57.35;;;25.88;;
55308;SDS011;44028;51.358;19.876;2022-12-24T09:21:02;80.53;;;39.33;;
55308;SDS011;44028;51.358;19.876;2022-12-24T09:23:29;90.40;;;43.33;;
55308;SDS011;44028;51.358;19.876;2022-12-24T09:25:56;79.05;;;38.08;;
55308;SDS011;44028;51.358;19.876;2022-12-24T09:28:23;71.95;;;36.55;;
55308;SDS011;44028;51.358;19.876;2022-12-24T09:30:59;69.30;;;33.28;;
55308;SDS011;44028;51.358;19.876;2022-12-24T09:33:27;72.13;;;34.03;;
55308;SDS011;44028;51.358;19.876;2022-12-24T09:35:54;66.72;;;32.08;;
55308;SDS011;44028;51.358;19.876;2022-12-24T09:38:21;72.60;;;34.38;;
55308;SDS011;44028;51.358;19.876;2022-12-24T09:40:48;66.68;;;32.58;;
55308;SDS011;44028;51.358;19.876;2022-12-24T09:43:19;78.00;;;34.85;;
55308;SDS011;44028;51.358;19.876;2022-12-24T09:48:24;75.45;;;33.25;;
55308;SDS011;44028;51.358;19.876;2022-12-24T09:53:39;80.85;;;34.97;;
55308;SDS011;44028;51.358;19.876;2022-12-24T09:56:12;101.68;;;36.78;;
55308;SDS011;44028;51.358;19.876;2022-12-24T09:58:42;95.43;;;34.58;;
55308;SDS011;44028;51.358;19.876;2022-12-24T10:01:13;66.35;;;26.05;;
55308;SDS011;44028;51.358;19.876;2022-12-24T10:03:41;52.15;;;22.15;;
55308;SDS011;44028;51.358;19.876;2022-12-24T10:08:58;37.53;;;17.67;;
55308;SDS011;44028;51.358;19.876;2022-12-24T10:16:40;34.33;;;15.65;;
55308;SDS011;44028;51.358;19.876;2022-12-24T10:19:11;38.83;;;17.55;;
55308;SDS011;44028;51.358;19.876;2022-12-24T10:21:48;36.13;;;16.98;;
55308;SDS011;44028;51.358;19.876;2022-12-24T10:27:15;33.92;;;17.48;;
55308;SDS011;44028;51.358;19.876;2022-12-24T10:29:44;34.38;;;15.85;;
55308;SDS011;44028;51.358;19.876;2022-12-24T10:34:53;33.78;;;16.20;;
55308;SDS011;44028;51.358;19.876;2022-12-24T10:37:23;34.28;;;16.00;;
55308;SDS011;44028;51.358;19.876;2022-12-24T10:39:51;35.08;;;16.02;;
55308;SDS011;44028;51.358;19.876;2022-12-24T10:42:17;36.67;;;16.58;;
55308;SDS011;44028;51.358;19.876;2022-12-24T10:44:46;36.17;;;16.98;;
55308;SDS011;44028;51.358;19.876;2022-12-24T10:47:15;32.40;;;15.80;;
55308;SDS011;44028;51.358;19.876;2022-12-24T10:49:47;31.35;;;15.65;;
55308;SDS011;44028;51.358;19.876;2022-12-24T10:52:15;37.97;;;19.75;;
55308;SDS011;44028;51.358;19.876;2022-12-24T10:57:24;34.35;;;16.33;;
55308;SDS011;44028;51.358;19.876;2022-12-24T10:59:52;43.22;;;21.05;;
55308;SDS011;44028;51.358;19.876;2022-12-24T11:04:57;125.15;;;51.35;;
55308;SDS011;44028;51.358;19.876;2022-12-24T11:07:28;78.63;;;34.95;;
55308;SDS011;44028;51.358;19.876;2022-12-24T11:09:59;164.70;;;73.57;;
55308;SDS011;44028;51.358;19.876;2022-12-24T11:12:30;148.45;;;69.40;;
55308;SDS011;44028;51.358;19.876;2022-12-24T11:15:17;80.53;;;40.38;;
55308;SDS011;44028;51.358;19.876;2022-12-24T11:17:54;159.38;;;68.20;;
55308;SDS011;44028;51.358;19.876;2022-12-24T11:20:25;99.88;;;45.22;;
55308;SDS011;44028;51.358;19.876;2022-12-24T11:22:53;61.60;;;30.77;;
55308;SDS011;44028;51.358;19.876;2022-12-24T11:25:27;67.70;;;37.13;;
55308;SDS011;44028;51.358;19.876;2022-12-24T11:27:54;44.17;;;23.13;;
55308;SDS011;44028;51.358;19.876;2022-12-24T11:30:24;39.10;;;19.63;;
55308;SDS011;44028;51.358;19.876;2022-12-24T11:35:27;53.85;;;24.25;;
55308;SDS011;44028;51.358;19.876;2022-12-24T11:40:34;73.57;;;34.28;;
55308;SDS011;44028;51.358;19.876;2022-12-24T11:43:18;91.90;;;40.10;;
55308;SDS011;44028;51.358;19.876;2022-12-24T11:46:39;65.97;;;31.38;;
55308;SDS011;44028;51.358;19.876;2022-12-24T11:51:38;63.25;;;31.20;;
55308;SDS011;44028;51.358;19.876;2022-12-24T11:56:48;64.45;;;32.00;;
55308;SDS011;44028;51.358;19.876;2022-12-24T11:59:18;63.63;;;33.80;;
55308;SDS011;44028;51.358;19.876;2022-12-24T12:01:53;62.08;;;28.73;;
55308;SDS011;44028;51.358;19.876;2022-12-24T12:04:23;59.92;;;29.77;;
55308;SDS011;44028;51.358;19.876;2022-12-24T12:06:56;53.78;;;27.55;;
55308;SDS011;44028;51.358;19.876;2022-12-24T12:09:28;54.90;;;28.15;;
55308;SDS011;44028;51.358;19.876;2022-12-24T12:12:08;46.45;;;22.45;;
55308;SDS011;44028;51.358;19.876;2022-12-24T12:14:45;52.50;;;26.42;;
55308;SDS011;44028;51.358;19.876;2022-12-24T12:22:27;47.30;;;22.38;;
55308;SDS011;44028;51.358;19.876;2022-12-24T12:24:55;40.92;;;19.35;;
55308;SDS011;44028;51.358;19.876;2022-12-24T12:27:32;35.55;;;16.95;;
55308;SDS011;44028;51.358;19.876;2022-12-24T12:30:00;37.53;;;18.48;;
55308;SDS011;44028;51.358;19.876;2022-12-24T12:32:31;41.33;;;19.80;;
55308;SDS011;44028;51.358;19.876;2022-12-24T12:35:05;65.63;;;30.90;;
55308;SDS011;44028;51.358;19.876;2022-12-24T12:37:39;78.40;;;34.78;;
55308;SDS011;44028;51.358;19.876;2022-12-24T12:40:12;58.15;;;28.77;;
55308;SDS011;44028;51.358;19.876;2022-12-24T12:42:39;55.67;;;27.77;;
55308;SDS011;44028;51.358;19.876;2022-12-24T12:50:32;66.50;;;28.92;;
55308;SDS011;44028;51.358;19.876;2022-12-24T13:01:00;69.15;;;32.30;;
55308;SDS011;44028;51.358;19.876;2022-12-24T13:03:47;61.30;;;29.08;;
55308;SDS011;44028;51.358;19.876;2022-12-24T13:06:30;40.53;;;21.83;;
55308;SDS011;44028;51.358;19.876;2022-12-24T13:11:51;61.38;;;28.05;;
55308;SDS011;44028;51.358;19.876;2022-12-24T13:14:31;83.15;;;36.28;;
55308;SDS011;44028;51.358;19.876;2022-12-24T13:22:28;122.85;;;57.80;;
55308;SDS011;44028;51.358;19.876;2022-12-24T13:24:55;116.78;;;55.47;;
55308;SDS011;44028;51.358;19.876;2022-12-24T13:27:23;97.93;;;45.42;;
55308;SDS011;44028;51.358;19.876;2022-12-24T13:34:47;125.18;;;55.40;;
55308;SDS011;44028;51.358;19.876;2022-12-24T13:37:21;95.47;;;44.08;;
55308;SDS011;44028;51.358;19.876;2022-12-24T13:50:35;143.07;;;57.90;;
55308;SDS011;44028;51.358;19.876;2022-12-24T13:53:05;141.00;;;64.03;;
55308;SDS011;44028;51.358;19.876;2022-12-24T13:55:33;95.60;;;46.20;;
55308;SDS011;44028;51.358;19.876;2022-12-24T13:58:00;79.97;;;38.95;;
55308;SDS011;44028;51.358;19.876;2022-12-24T14:00:32;66.93;;;34.55;;
55308;SDS011;44028;51.358;19.876;2022-12-24T14:08:02;52.97;;;24.58;;
55308;SDS011;44028;51.358;19.876;2022-12-24T14:10:34;68.95;;;32.85;;
55308;SDS011;44028;51.358;19.876;2022-12-24T14:13:02;61.63;;;29.35;;
55308;SDS011;44028;51.358;19.876;2022-12-24T14:18:15;71.47;;;33.95;;
55308;SDS011;44028;51.358;19.876;2022-12-24T14:20:49;51.97;;;25.52;;
55308;SDS011;44028;51.358;19.876;2022-12-24T14:24:00;66.20;;;34.70;;
55308;SDS011;44028;51.358;19.876;2022-12-24T14:35:50;202.93;;;79.18;;
55308;SDS011;44028;51.358;19.876;2022-12-24T14:38:57;275.27;;;106.63;;
55308;SDS011;44028;51.358;19.876;2022-12-24T14:41:40;158.52;;;68.40;;
55308;SDS011;44028;51.358;19.876;2022-12-24T14:53:02;103.38;;;44.10;;
55308;SDS011;44028;51.358;19.876;2022-12-24T14:55:58;106.65;;;43.20;;
55308;SDS011;44028;51.358;19.876;2022-12-24T14:58:41;119.30;;;44.38;;
55308;SDS011;44028;51.358;19.876;2022-12-24T15:06:33;101.60;;;41.92;;
55308;SDS011;44028;51.358;19.876;2022-12-24T15:09:01;99.30;;;40.15;;
55308;SDS011;44028;51.358;19.876;2022-12-24T15:11:28;84.53;;;36.83;;
55308;SDS011;44028;51.358;19.876;2022-12-24T15:13:56;71.60;;;34.58;;
55308;SDS011;44028;51.358;19.876;2022-12-24T15:16:32;66.95;;;32.53;;
55308;SDS011;44028;51.358;19.876;2022-12-24T15:19:02;67.25;;;33.80;;
55308;SDS011;44028;51.358;19.876;2022-12-24T15:21:33;70.45;;;33.45;;
55308;SDS011;44028;51.358;19.876;2022-12-24T15:24:03;72.05;;;33.92;;
55308;SDS011;44028;51.358;19.876;2022-12-24T15:26:34;67.75;;;32.28;;
55308;SDS011;44028;51.358;19.876;2022-12-24T15:29:12;69.88;;;32.88;;
55308;SDS011;44028;51.358;19.876;2022-12-24T15:31:40;63.83;;;30.90;;
55308;SDS011;44028;51.358;19.876;2022-12-24T15:34:23;53.58;;;26.98;;
55308;SDS011;44028;51.358;19.876;2022-12-24T15:36:50;52.13;;;26.73;;
55308;SDS011;44028;51.358;19.876;2022-12-24T15:39:40;52.40;;;24.25;;
55308;SDS011;44028;51.358;19.876;2022-12-24T15:42:07;48.88;;;25.08;;
55308;SDS011;44028;51.358;19.876;2022-12-24T15:44:43;52.05;;;24.48;;
55308;SDS011;44028;51.358;19.876;2022-12-24T15:47:17;48.38;;;23.38;;
55308;SDS011;44028;51.358;19.876;2022-12-24T15:50:03;54.22;;;25.05;;
55308;SDS011;44028;51.358;19.876;2022-12-24T15:52:30;56.78;;;26.52;;
55308;SDS011;44028;51.358;19.876;2022-12-24T15:55:01;49.65;;;24.63;;
55308;SDS011;44028;51.358;19.876;2022-12-24T15:57:29;48.88;;;23.52;;
55308;SDS011;44028;51.358;19.876;2022-12-24T15:59:57;49.28;;;24.83;;
55308;SDS011;44028;51.358;19.876;2022-12-24T16:10:42;57.15;;;25.42;;
55308;SDS011;44028;51.358;19.876;2022-12-24T16:16:29;46.25;;;21.13;;
55308;SDS011;44028;51.358;19.876;2022-12-24T16:18:34;48.67;;;20.25;;
55308;SDS011;44028;51.358;19.876;2022-12-24T16:21:01;41.47;;;18.73;;
55308;SDS011;44028;51.358;19.876;2022-12-24T16:23:31;41.25;;;17.92;;
55308;SDS011;44028;51.358;19.876;2022-12-24T16:26:00;43.75;;;20.10;;
55308;SDS011;44028;51.358;19.876;2022-12-24T16:28:27;43.33;;;20.98;;
55308;SDS011;44028;51.358;19.876;2022-12-24T16:30:54;45.40;;;20.33;;
55308;SDS011;44028;51.358;19.876;2022-12-24T16:33:30;38.55;;;18.77;;
55308;SDS011;44028;51.358;19.876;2022-12-24T16:36:27;37.45;;;18.10;;
55308;SDS011;44028;51.358;19.876;2022-12-24T16:41:39;54.58;;;22.73;;
55308;SDS011;44028;51.358;19.876;2022-12-24T16:44:20;55.13;;;24.40;;
55308;SDS011;44028;51.358;19.876;2022-12-24T16:46:47;102.65;;;42.47;;
55308;SDS011;44028;51.358;19.876;2022-12-24T16:49:17;70.53;;;29.83;;
55308;SDS011;44028;51.358;19.876;2022-12-24T16:51:46;182.32;;;68.82;;